Elmsford, New York
Current Conditions -  °F | °C
As of 10:56 AM on Saturday 22 Nov 2014 (Local Time) from KHPN Reporting Station
Scattered Clouds Scattered Clouds  
Wind Chill: 27°   Ceiling: Unl
Heat Index: 34°   Visibility: 10mi
Dew Point: 10°   Wind: 9mph
Humidity: 37%   Direction: 270°W
Pressure: 30.37"   Gusts: NA
Location:  41.06°N, 73.82°W
Report Text: KHPN 221556Z 27008KT 10SM SCT120 01/M12 A3037 RMK AO2 SLP294 T00111122
Loading
Personal Weather Stations






























Interactive Weather Map New forecast layout! Learn more

10-Day Weather Forecast

Advertisements
Track Severe Weather on mobile